Time;durP1;ratioP1;P1;durP2;ratioP2;P2;SDS_P1;SDS_P2;PMS_P1;PMS_P2;Temp;Humidity;BMP_temperature;BMP_pressure;BME280_temperature;BME280_humidity;BME280_pressure;Samples;Min_cycle;Max_cycle;Signal;HPM_P1;HPM_P2
2023/11/25 00:00:55;;;;;;;6.13;3.50;;;9.40;99.40;;;;;;4986143;28;21269;-26
2023/11/25 00:03:22;;;;;;;5.60;2.92;;;9.40;99.40;;;;;;4996811;28;20466;-26
2023/11/25 00:05:49;;;;;;;6.50;3.10;;;9.40;99.50;;;;;;5005553;28;20291;-25
2023/11/25 00:08:17;;;;;;;3.80;2.87;;;9.40;99.50;;;;;;5008709;28;20193;-25
2023/11/25 00:10:43;;;;;;;7.17;3.40;;;9.40;99.40;;;;;;5000215;28;20427;-26
2023/11/25 00:13:10;;;;;;;6.30;3.33;;;9.40;99.40;;;;;;4985689;28;20452;-25
2023/11/25 00:15:38;;;;;;;4.80;3.10;;;9.30;99.50;;;;;;5016598;28;20432;-26
2023/11/25 00:18:07;;;;;;;5.50;3.43;;;9.30;99.60;;;;;;5015008;28;20848;-25
2023/11/25 00:20:36;;;;;;;9.25;3.38;;;9.30;99.70;;;;;;5022492;28;20423;-26
2023/11/25 00:23:04;;;;;;;6.23;3.27;;;9.30;99.70;;;;;;4983791;28;20216;-26
2023/11/25 00:25:31;;;;;;;7.63;2.80;;;9.30;99.70;;;;;;5001461;28;20552;-25
2023/11/25 00:27:57;;;;;;;5.40;2.93;;;9.30;99.70;;;;;;5015203;28;20433;-26
2023/11/25 00:30:27;;;;;;;5.50;2.60;;;9.30;99.60;;;;;;5025851;28;20773;-25
2023/11/25 00:32:54;;;;;;;5.37;3.50;;;9.30;99.60;;;;;;5001173;28;20459;-25
2023/11/25 00:35:23;;;;;;;4.13;2.90;;;9.20;99.60;;;;;;5021921;28;20439;-25
2023/11/25 00:37:53;;;;;;;5.57;3.17;;;9.20;99.70;;;;;;5023228;28;20436;-25
2023/11/25 00:40:25;;;;;;;5.80;3.40;;;9.20;99.80;;;;;;5025716;28;20961;-25
2023/11/25 00:42:52;;;;;;;4.33;3.53;;;9.20;99.90;;;;;;5009485;28;21037;-25
2023/11/25 00:45:25;;;;;;;5.50;3.00;;;9.10;99.80;;;;;;5003233;28;20482;-26
2023/11/25 00:47:53;;;;;;;6.78;2.97;;;9.10;99.90;;;;;;5004139;28;20815;-24
2023/11/25 00:50:19;;;;;;;5.47;2.95;;;9.10;99.90;;;;;;5003547;28;20778;-26
2023/11/25 00:52:47;;;;;;;6.30;2.73;;;9.20;99.80;;;;;;5026666;28;20293;-25
2023/11/25 00:55:17;;;;;;;5.03;3.07;;;9.20;99.70;;;;;;5007545;28;20471;-26
2023/11/25 00:57:43;;;;;;;4.33;2.90;;;9.20;99.70;;;;;;4977080;28;20467;-25
2023/11/25 01:00:15;;;;;;;5.80;2.60;;;9.20;99.70;;;;;;5000047;28;20423;-26
2023/11/25 01:02:47;;;;;;;3.90;2.80;;;9.20;99.80;;;;;;5026375;28;20459;-25
2023/11/25 01:05:15;;;;;;;3.63;2.93;;;9.10;99.80;;;;;;5000905;28;20468;-26
2023/11/25 01:07:46;;;;;;;6.03;2.90;;;9.10;99.90;;;;;;5017463;28;21017;-25
2023/11/25 01:10:12;;;;;;;4.90;2.97;;;9.10;99.90;;;;;;5012355;28;20999;-25
2023/11/25 01:12:42;;;;;;;3.07;2.50;;;9.10;99.80;;;;;;4988266;28;20502;-26
2023/11/25 01:15:15;;;;;;;6.20;2.67;;;9.10;99.80;;;;;;5005209;28;21020;-25
2023/11/25 01:17:43;;;;;;;3.63;2.67;;;9.10;99.90;;;;;;4980758;28;20458;-24
2023/11/25 01:20:10;;;;;;;2.87;2.40;;;9.10;99.90;;;;;;5009956;28;20192;-24
2023/11/25 01:22:36;;;;;;;6.40;2.50;;;9.10;99.80;;;;;;4987156;28;20494;-25
2023/11/25 01:25:02;;;;;;;5.57;2.60;;;9.10;99.80;;;;;;5002898;28;20494;-26
2023/11/25 01:27:30;;;;;;;6.38;2.80;;;9.10;99.80;;;;;;5009907;28;21023;-25
2023/11/25 01:29:57;;;;;;;4.23;2.70;;;9.10;99.90;;;;;;5005619;28;20212;-24
2023/11/25 01:32:23;;;;;;;3.50;3.00;;;9.10;99.90;;;;;;5007748;28;20479;-25
2023/11/25 01:34:55;;;;;;;4.97;2.70;;;9.20;99.70;;;;;;5009818;28;20287;-26
2023/11/25 01:37:26;;;;;;;6.93;2.30;;;9.20;99.50;;;;;;4990590;28;20439;-25
2023/11/25 01:39:55;;;;;;;4.70;2.80;;;9.20;99.50;;;;;;5026722;28;20481;-25
2023/11/25 01:42:21;;;;;;;4.45;2.20;;;9.10;99.50;;;;;;5002338;28;20509;-25
2023/11/25 01:44:47;;;;;;;4.27;2.57;;;9.10;99.60;;;;;;5010246;28;20205;-25
2023/11/25 01:47:15;;;;;;;5.63;2.23;;;9.10;99.50;;;;;;5020749;28;20415;-25
2023/11/25 01:49:44;;;;;;;9.03;2.73;;;9.10;99.50;;;;;;5009311;28;20428;-25
2023/11/25 01:52:15;;;;;;;4.20;2.30;;;9.10;99.60;;;;;;4998340;28;20523;-26
2023/11/25 01:54:42;;;;;;;7.30;2.63;;;9.00;99.60;;;;;;5005054;28;20455;-26
2023/11/25 01:57:15;;;;;;;4.00;2.37;;;9.00;99.70;;;;;;5016368;28;20514;-26
2023/11/25 01:59:44;;;;;;;7.23;2.40;;;9.00;99.80;;;;;;4997999;28;20851;-25
2023/11/25 02:02:15;;;;;;;9.23;2.33;;;9.00;99.80;;;;;;4992936;28;20466;-23
2023/11/25 02:04:43;;;;;;;4.00;2.60;;;8.90;99.80;;;;;;5005527;28;20909;-25
2023/11/25 02:07:12;;;;;;;4.17;2.17;;;8.90;99.90;;;;;;5005816;28;21045;-25
2023/11/25 02:09:38;;;;;;;3.60;1.90;;;8.90;99.90;;;;;;4980331;28;20477;-27
2023/11/25 02:12:04;;;;;;;4.80;2.50;;;8.90;99.90;;;;;;5021882;28;20200;-25
2023/11/25 02:14:31;;;;;;;7.10;3.30;;;9.00;99.80;;;;;;5011336;28;20649;-25
2023/11/25 02:17:24;;;;;;;3.97;2.47;;;9.00;99.70;;;;;;4989193;28;21152;-26
2023/11/25 02:19:53;;;;;;;4.73;2.63;;;9.00;99.60;;;;;;4983691;28;20423;-26
2023/11/25 02:22:21;;;;;;;5.13;2.50;;;9.00;99.60;;;;;;5019673;28;20458;-27
2023/11/25 02:24:47;;;;;;;4.70;2.37;;;8.90;99.60;;;;;;4974883;28;20483;-25
2023/11/25 02:27:13;;;;;;;7.25;2.55;;;8.90;99.70;;;;;;4979099;28;20438;-27
2023/11/25 02:29:40;;;;;;;5.20;2.80;;;8.90;99.70;;;;;;5013587;28;20680;-25
2023/11/25 02:32:07;;;;;;;4.33;1.93;;;8.90;99.70;;;;;;4986541;28;20462;-26
2023/11/25 02:34:34;;;;;;;3.90;2.20;;;8.90;99.60;;;;;;4980757;28;20447;-26
2023/11/25 02:37:00;;;;;;;2.70;2.00;;;8.90;99.70;;;;;;5016330;28;20466;-27
2023/11/25 02:39:27;;;;;;;4.03;1.98;;;8.90;99.70;;;;;;5010273;28;20463;-27
2023/11/25 02:41:55;;;;;;;2.70;1.97;;;8.90;99.70;;;;;;4993238;28;20304;-27
2023/11/25 02:44:21;;;;;;;5.70;2.10;;;8.90;99.70;;;;;;4997162;28;20491;-26
2023/11/25 02:46:48;;;;;;;5.77;2.43;;;8.90;99.70;;;;;;5010767;28;20428;-25
2023/11/25 02:49:15;;;;;;;6.50;2.23;;;8.90;99.60;;;;;;5013390;28;20466;-25
2023/11/25 02:51:50;;;;;;;3.40;2.50;;;8.90;99.60;;;;;;5002198;28;20485;-26
2023/11/25 02:54:19;;;;;;;5.57;1.83;;;8.80;99.60;;;;;;5009366;28;20856;-25
2023/11/25 02:56:47;;;;;;;2.90;1.83;;;8.80;99.70;;;;;;4997209;28;20455;-28
2023/11/25 02:59:18;;;;;;;3.10;1.87;;;8.80;99.70;;;;;;4957788;28;20917;-24
2023/11/25 03:01:52;;;;;;;3.43;1.80;;;8.80;99.60;;;;;;4989352;28;20530;-25
2023/11/25 03:04:26;;;;;;;4.47;2.13;;;8.80;99.60;;;;;;5018792;28;20482;-25
2023/11/25 03:06:55;;;;;;;3.60;2.03;;;8.80;99.60;;;;;;4994473;28;20446;-26
2023/11/25 03:09:21;;;;;;;5.00;2.17;;;8.80;99.60;;;;;;4993720;28;20503;-26
2023/11/25 03:11:47;;;;;;;10.20;2.57;;;8.80;99.70;;;;;;5000850;28;20528;-25
2023/11/25 03:14:15;;;;;;;3.43;1.87;;;8.70;99.60;;;;;;4991647;28;20891;-24
2023/11/25 03:16:42;;;;;;;3.90;2.03;;;8.70;99.70;;;;;;5003690;28;21116;-26
2023/11/25 03:19:10;;;;;;;3.10;1.80;;;8.70;99.70;;;;;;4987559;28;20420;-26
2023/11/25 03:21:37;;;;;;;4.40;2.57;;;8.70;99.70;;;;;;5000823;28;20432;-26
2023/11/25 03:24:07;;;;;;;1.53;1.33;;;8.70;99.70;;;;;;5016338;28;21024;-28
2023/11/25 03:26:35;;;;;;;5.00;1.70;;;8.80;99.60;;;;;;5013464;28;20935;-27
2023/11/25 03:29:01;;;;;;;5.47;2.47;;;8.80;99.60;;;;;;5000069;28;20455;-27
2023/11/25 03:31:27;;;;;;;4.50;1.83;;;8.70;99.50;;;;;;5011428;28;20434;-26
2023/11/25 03:33:55;;;;;;;5.27;2.40;;;8.70;99.50;;;;;;5001242;28;21655;-26
2023/11/25 03:36:22;;;;;;;3.90;2.00;;;8.70;99.60;;;;;;5002459;28;21047;-25
2023/11/25 03:38:49;;;;;;;5.60;2.70;;;8.70;99.60;;;;;;5001775;28;20447;-26
2023/11/25 03:41:16;;;;;;;4.77;1.80;;;8.70;99.60;;;;;;5002576;28;21133;-27
2023/11/25 03:43:44;;;;;;;3.00;1.90;;;8.70;99.60;;;;;;5001689;28;20987;-28
2023/11/25 03:46:13;;;;;;;4.20;2.40;;;8.60;99.60;;;;;;5019548;28;21265;-26
2023/11/25 03:48:41;;;;;;;3.63;2.03;;;8.60;99.70;;;;;;5001420;28;20521;-26
2023/11/25 03:51:11;;;;;;;3.93;1.87;;;8.60;99.70;;;;;;5002234;28;20220;-27
2023/11/25 03:53:39;;;;;;;2.97;1.63;;;8.70;99.60;;;;;;5010928;28;20455;-26
2023/11/25 03:56:08;;;;;;;4.45;1.75;;;8.70;99.60;;;;;;5019185;28;20431;-26
2023/11/25 03:58:37;;;;;;;2.10;1.60;;;8.70;99.60;;;;;;5001683;28;20269;-28
2023/11/25 04:01:05;;;;;;;4.03;1.97;;;8.70;99.50;;;;;;5000805;28;20423;-27
2023/11/25 04:03:34;;;;;;;3.93;2.73;;;8.70;99.50;;;;;;5002017;28;20731;-27
2023/11/25 04:06:02;;;;;;;4.50;2.13;;;8.60;99.50;;;;;;5001345;28;20902;-25
2023/11/25 04:08:28;;;;;;;5.33;2.03;;;8.70;99.50;;;;;;5001152;28;20196;-27
2023/11/25 04:10:54;;;;;;;3.00;2.10;;;8.70;99.50;;;;;;5000384;28;20432;-27
2023/11/25 04:13:23;;;;;;;4.72;2.05;;;8.70;99.40;;;;;;5001225;28;20455;-27
2023/11/25 04:15:49;;;;;;;6.28;2.10;;;8.70;99.40;;;;;;5018706;28;20199;-27
2023/11/25 04:18:22;;;;;;;5.87;2.40;;;8.70;99.40;;;;;;4996270;28;20189;-26
2023/11/25 04:20:52;;;;;;;2.70;1.53;;;8.70;99.20;;;;;;5018991;28;21142;-24
2023/11/25 04:23:21;;;;;;;2.80;2.03;;;8.70;99.20;;;;;;5012315;28;20447;-26
2023/11/25 04:25:47;;;;;;;4.63;2.10;;;8.70;99.20;;;;;;5015538;28;20483;-25
2023/11/25 04:28:13;;;;;;;6.20;2.30;;;8.70;99.30;;;;;;5002370;28;20445;-26
2023/11/25 04:30:39;;;;;;;3.83;1.87;;;8.60;99.30;;;;;;5019488;28;20439;-25
2023/11/25 04:33:11;;;;;;;7.67;2.37;;;8.60;99.40;;;;;;5000046;28;20474;-26
2023/11/25 04:35:37;;;;;;;4.25;1.90;;;8.60;99.40;;;;;;5019783;28;21131;-27
2023/11/25 04:38:07;;;;;;;3.43;1.93;;;8.60;99.50;;;;;;5021085;28;20193;-27
2023/11/25 04:40:33;;;;;;;4.82;1.85;;;8.60;99.30;;;;;;5002152;28;21323;-27
2023/11/25 04:43:03;;;;;;;4.43;1.83;;;8.70;99.20;;;;;;5019773;28;20778;-25
2023/11/25 04:45:29;;;;;;;4.38;1.90;;;8.70;99.10;;;;;;5015610;28;20459;-24
2023/11/25 04:47:55;;;;;;;7.00;2.07;;;8.80;99.00;;;;;;5021962;28;20177;-26
2023/11/25 04:50:22;;;;;;;2.77;1.90;;;8.80;98.90;;;;;;5003744;28;20470;-25
2023/11/25 04:52:49;;;;;;;5.27;2.20;;;8.70;98.80;;;;;;5021118;28;20443;-26
2023/11/25 04:55:19;;;;;;;4.43;1.97;;;8.70;98.90;;;;;;5019381;28;20447;-26
2023/11/25 04:57:45;;;;;;;3.70;1.77;;;8.60;99.00;;;;;;5018782;28;20508;-25
2023/11/25 05:00:13;;;;;;;3.20;2.10;;;8.60;99.10;;;;;;5000173;28;21051;-25
2023/11/25 05:02:42;;;;;;;2.77;2.00;;;8.60;99.20;;;;;;4998894;28;20558;-26
2023/11/25 05:05:09;;;;;;;2.63;1.50;;;8.50;99.20;;;;;;5002416;28;20478;-27
2023/11/25 05:07:35;;;;;;;2.17;1.80;;;8.50;99.30;;;;;;5018383;28;20945;-25
2023/11/25 05:10:05;;;;;;;6.13;2.80;;;8.50;99.40;;;;;;4996762;28;20550;-26
2023/11/25 05:12:32;;;;;;;2.90;1.87;;;8.50;99.40;;;;;;5017457;28;20453;-27
2023/11/25 05:14:58;;;;;;;3.27;2.30;;;8.50;99.40;;;;;;5017672;28;21041;-25
2023/11/25 05:17:25;;;;;;;2.93;1.90;;;8.50;99.50;;;;;;5017731;28;20492;-26
2023/11/25 05:19:53;;;;;;;4.20;2.30;;;8.40;99.50;;;;;;5000678;28;20454;-26
2023/11/25 05:22:21;;;;;;;3.70;2.10;;;8.50;99.50;;;;;;5017939;28;20688;-29
2023/11/25 05:24:47;;;;;;;5.57;2.30;;;8.50;99.50;;;;;;5018282;28;20470;-25
2023/11/25 05:27:13;;;;;;;5.90;2.43;;;8.50;99.40;;;;;;5019232;28;20430;-27
2023/11/25 05:29:39;;;;;;;5.30;2.05;;;8.50;99.40;;;;;;5019610;28;21205;-26
2023/11/25 05:32:12;;;;;;;3.83;2.10;;;8.50;99.40;;;;;;5019825;28;20191;-25
2023/11/25 05:34:40;;;;;;;6.40;2.20;;;8.50;99.30;;;;;;5001585;28;20465;-25
2023/11/25 05:37:10;;;;;;;5.03;2.30;;;8.50;99.30;;;;;;5017399;28;20197;-25
2023/11/25 05:39:41;;;;;;;5.50;2.90;;;8.50;99.20;;;;;;5020252;28;20249;-25
2023/11/25 05:42:10;;;;;;;4.97;2.25;;;8.60;99.10;;;;;;4997350;28;20435;-27
2023/11/25 05:44:36;;;;;;;6.00;2.93;;;8.60;99.10;;;;;;5017422;28;20215;-25
2023/11/25 05:47:05;;;;;;;4.93;1.80;;;8.60;99.00;;;;;;5009478;28;20428;-28
2023/11/25 05:49:31;;;;;;;4.43;3.30;;;8.50;99.00;;;;;;4996171;28;20443;-25
2023/11/25 05:52:26;;;;;;;6.30;2.37;;;8.50;99.10;;;;;;5011000;28;20452;-26
2023/11/25 05:54:52;;;;;;;4.93;2.57;;;8.50;99.20;;;;;;4998099;28;20458;-26
2023/11/25 05:57:18;;;;;;;4.18;2.28;;;8.40;99.30;;;;;;5010772;28;20971;-25
2023/11/25 05:59:46;;;;;;;4.80;2.08;;;8.40;99.30;;;;;;5015960;28;20197;-25
2023/11/25 06:02:13;;;;;;;5.23;2.73;;;8.50;99.30;;;;;;5000920;28;20204;-26
2023/11/25 06:04:39;;;;;;;8.30;2.07;;;8.50;99.20;;;;;;5008378;28;20477;-26
2023/11/25 06:07:08;;;;;;;8.77;2.53;;;8.50;99.20;;;;;;4976265;28;21111;-25
2023/11/25 06:09:34;;;;;;;4.43;2.23;;;8.50;99.30;;;;;;4990338;28;20439;-25
2023/11/25 06:12:02;;;;;;;3.50;2.00;;;8.40;99.30;;;;;;4996181;28;20453;-25
2023/11/25 06:14:32;;;;;;;3.13;1.90;;;8.40;99.40;;;;;;5003408;28;20431;-25
2023/11/25 06:17:00;;;;;;;7.07;2.13;;;8.40;99.40;;;;;;5018574;28;20431;-26
2023/11/25 06:19:31;;;;;;;4.10;2.33;;;8.30;99.40;;;;;;5009689;28;20432;-26
2023/11/25 06:21:59;;;;;;;3.80;2.10;;;8.30;99.50;;;;;;5012512;28;20454;-25
2023/11/25 06:24:31;;;;;;;2.43;2.10;;;8.30;99.50;;;;;;4990447;28;20490;-26
2023/11/25 06:26:59;;;;;;;4.67;2.13;;;8.30;99.60;;;;;;5013486;28;20426;-27
2023/11/25 06:29:27;;;;;;;4.50;2.13;;;8.30;99.60;;;;;;4997446;28;20437;-25
2023/11/25 06:31:54;;;;;;;4.73;1.90;;;8.30;99.60;;;;;;5018189;28;20430;-25
2023/11/25 06:34:20;;;;;;;9.93;3.37;;;8.30;99.70;;;;;;5014468;28;20959;-26
2023/11/25 06:36:47;;;;;;;4.53;2.87;;;8.30;99.70;;;;;;5006493;28;20434;-26
2023/11/25 06:39:22;;;;;;;4.53;3.17;;;8.30;99.90;;;;;;4998590;28;20450;-26
2023/11/25 06:41:51;;;;;;;5.05;2.08;;;8.30;99.80;;;;;;4993352;28;20443;-25
2023/11/25 06:44:21;;;;;;;6.70;2.50;;;8.30;99.80;;;;;;4996655;28;20208;-26
2023/11/25 06:46:50;;;;;;;10.20;3.20;;;8.30;99.70;;;;;;5021910;28;20476;-27
2023/11/25 06:49:16;;;;;;;4.78;2.20;;;8.30;99.60;;;;;;4993295;28;20471;-26
2023/11/25 06:51:42;;;;;;;6.23;2.47;;;8.30;99.60;;;;;;5007018;28;20816;-26
2023/11/25 06:54:11;;;;;;;6.60;2.23;;;8.40;99.60;;;;;;5017315;28;21035;-26
2023/11/25 06:56:40;;;;;;;7.10;1.90;;;8.30;99.50;;;;;;4989637;28;20965;-25
2023/11/25 06:59:06;;;;;;;5.70;2.37;;;8.30;99.50;;;;;;4999557;28;20450;-26
2023/11/25 07:01:33;;;;;;;6.33;2.63;;;8.30;99.60;;;;;;5015340;28;20439;-25
2023/11/25 07:04:02;;;;;;;6.10;2.40;;;8.30;99.60;;;;;;5004173;28;21369;-27
2023/11/25 07:06:28;;;;;;;5.77;2.10;;;8.30;99.70;;;;;;4999860;28;20448;-26
2023/11/25 07:09:00;;;;;;;6.28;2.42;;;8.30;99.80;;;;;;5013275;28;20978;-26
2023/11/25 07:11:30;;;;;;;8.07;2.40;;;8.30;99.80;;;;;;4987040;28;20215;-26
2023/11/25 07:13:59;;;;;;;3.67;2.08;;;8.30;99.70;;;;;;5006994;28;20455;-26
2023/11/25 07:16:25;;;;;;;6.63;2.45;;;8.30;99.60;;;;;;5017342;28;20667;-26
2023/11/25 07:18:52;;;;;;;6.03;2.33;;;8.40;99.50;;;;;;5012017;28;20197;-26
2023/11/25 07:21:23;;;;;;;6.73;2.63;;;8.40;99.40;;;;;;4998984;28;20427;-25
2023/11/25 07:23:55;;;;;;;11.07;3.50;;;8.40;99.40;;;;;;5000209;28;20451;-25
2023/11/25 07:26:26;;;;;;;4.27;1.90;;;8.30;99.40;;;;;;5019971;28;20526;-26
2023/11/25 07:28:52;;;;;;;5.70;2.70;;;8.30;99.50;;;;;;5004650;28;20432;-25
2023/11/25 07:31:24;;;;;;;7.20;2.37;;;8.30;99.60;;;;;;5011433;28;20431;-26
2023/11/25 07:33:52;;;;;;;4.67;2.00;;;8.30;99.60;;;;;;5014765;28;21187;-27
2023/11/25 07:36:18;;;;;;;8.80;2.60;;;8.30;99.70;;;;;;4990820;28;20496;-25
2023/11/25 07:38:46;;;;;;;5.67;2.33;;;8.30;99.70;;;;;;5012136;28;20447;-27
2023/11/25 07:41:18;;;;;;;3.20;2.00;;;8.20;99.70;;;;;;5005906;28;20896;-25
2023/11/25 07:43:48;;;;;;;7.17;2.40;;;8.20;99.80;;;;;;4958488;28;21116;-26
2023/11/25 07:46:17;;;;;;;6.55;2.47;;;8.20;99.80;;;;;;4993925;28;20497;-28
2023/11/25 07:48:44;;;;;;;8.90;3.03;;;8.20;99.80;;;;;;5000063;28;20192;-25
2023/11/25 07:51:10;;;;;;;4.40;2.53;;;8.20;99.70;;;;;;4999877;28;21200;-26
2023/11/25 07:53:41;;;;;;;5.77;2.50;;;8.30;99.70;;;;;;5015492;28;20444;-26
2023/11/25 07:56:07;;;;;;;5.17;2.57;;;8.20;99.60;;;;;;5007149;28;20962;-25
2023/11/25 07:58:33;;;;;;;6.00;2.30;;;8.20;99.70;;;;;;5015536;28;20422;-25
2023/11/25 08:00:59;;;;;;;3.70;2.30;;;8.20;99.70;;;;;;5018469;28;20455;-27
2023/11/25 08:03:24;;;;;;;7.82;3.03;;;8.20;99.80;;;;;;4990573;28;20559;-25
2023/11/25 08:05:51;;;;;;;5.07;2.67;;;8.20;99.80;;;;;;4983294;28;20211;-25
2023/11/25 08:08:19;;;;;;;6.07;2.20;;;8.30;99.70;;;;;;5014189;28;20511;-26
2023/11/25 08:10:45;;;;;;;4.00;2.33;;;8.30;99.70;;;;;;5016270;28;20587;-26
2023/11/25 08:13:14;;;;;;;4.70;2.60;;;8.30;99.60;;;;;;4996253;28;21322;-26
2023/11/25 08:15:41;;;;;;;4.23;2.13;;;8.30;99.60;;;;;;5020512;28;20423;-26
2023/11/25 08:18:10;;;;;;;6.40;2.47;;;8.30;99.60;;;;;;5025954;28;20953;-28
2023/11/25 08:20:39;;;;;;;7.33;2.57;;;8.30;99.70;;;;;;5000416;28;20455;-26
2023/11/25 08:23:06;;;;;;;5.43;2.97;;;8.20;99.70;;;;;;5015570;28;20562;-27
2023/11/25 08:25:33;;;;;;;4.72;2.53;;;8.20;99.70;;;;;;4998842;28;20475;-25
2023/11/25 08:28:01;;;;;;;7.17;2.10;;;8.20;99.80;;;;;;5016149;28;20200;-27
2023/11/25 08:30:27;;;;;;;6.57;2.67;;;8.30;99.70;;;;;;4991252;28;20839;-26
2023/11/25 08:32:56;;;;;;;5.35;3.17;;;8.30;99.70;;;;;;5008612;28;20452;-26
2023/11/25 08:35:24;;;;;;;5.47;2.60;;;8.30;99.60;;;;;;4999556;28;20996;-26
2023/11/25 08:37:52;;;;;;;3.37;2.23;;;8.30;99.50;;;;;;4992435;28;20478;-25
2023/11/25 08:40:21;;;;;;;4.00;2.20;;;8.30;99.50;;;;;;5017672;28;20717;-27
2023/11/25 08:42:49;;;;;;;5.30;2.20;;;8.30;99.60;;;;;;5006694;28;20446;-25
2023/11/25 08:45:16;;;;;;;3.80;2.50;;;8.30;99.70;;;;;;4997742;28;20831;-26
2023/11/25 08:47:46;;;;;;;3.90;2.27;;;8.20;99.80;;;;;;5004352;28;20176;-27
2023/11/25 08:50:15;;;;;;;4.23;2.50;;;8.30;99.90;;;;;;5004199;28;20417;-26
2023/11/25 08:52:44;;;;;;;8.13;2.60;;;8.30;99.80;;;;;;4986925;28;21046;-25
2023/11/25 08:55:11;;;;;;;4.18;2.13;;;8.20;99.80;;;;;;4991979;28;20455;-26
2023/11/25 08:57:37;;;;;;;4.20;2.00;;;8.20;99.90;;;;;;5005779;28;20289;-25
2023/11/25 09:00:19;;;;;;;4.03;2.10;;;8.30;99.90;;;;;;5020101;28;20409;-25
2023/11/25 09:02:54;;;;;;;4.33;2.03;;;8.30;99.80;;;;;;4994362;28;20494;-25
2023/11/25 09:05:25;;;;;;;3.77;2.20;;;8.30;99.70;;;;;;5004335;28;20541;-26
2023/11/25 09:07:55;;;;;;;3.92;1.60;;;8.30;99.80;;;;;;5014287;28;20503;-25
2023/11/25 09:10:28;;;;;;;5.05;2.55;;;8.30;99.90;;;;;;5015479;28;20962;-25
2023/11/25 09:12:57;;;;;;;3.90;1.97;;;8.20;99.80;;;;;;5015325;28;20618;-26
2023/11/25 09:15:28;;;;;;;4.30;1.87;;;8.30;99.80;;;;;;4986244;28;20424;-26
2023/11/25 09:17:54;;;;;;;4.50;2.03;;;8.30;99.80;;;;;;4996775;28;20428;-26
2023/11/25 09:20:47;;;;;;;6.10;2.53;;;8.30;99.90;;;;;;4986803;28;20802;-26
2023/11/25 09:23:15;;;;;;;6.63;1.85;;;8.20;99.90;;;;;;4989479;28;21010;-27
2023/11/25 09:25:41;;;;;;;4.47;2.55;;;8.20;99.90;;;;;;5000807;28;20243;-28
2023/11/25 09:28:09;;;;;;;6.27;2.17;;;8.30;99.90;;;;;;5015657;28;20207;-28
2023/11/25 09:30:40;;;;;;;3.53;1.87;;;8.30;99.90;;;;;;5017653;28;21233;-26
2023/11/25 09:33:06;;;;;;;4.27;1.87;;;8.30;99.90;;;;;;4999470;28;20456;-25
2023/11/25 09:35:36;;;;;;;8.30;2.40;;;8.30;99.90;;;;;;4993189;28;20455;-26
2023/11/25 09:38:06;;;;;;;2.30;1.77;;;8.30;99.90;;;;;;5019947;28;20439;-25
2023/11/25 09:40:32;;;;;;;5.33;2.00;;;8.20;99.90;;;;;;5015045;28;20703;-27
2023/11/25 09:42:59;;;;;;;3.10;2.30;;;8.20;99.90;;;;;;5010344;28;20464;-27
2023/11/25 09:45:29;;;;;;;5.80;2.33;;;8.30;99.90;;;;;;4997777;28;20489;-26
2023/11/25 09:48:00;;;;;;;2.97;2.00;;;8.30;99.90;;;;;;4996303;28;21004;-26
2023/11/25 09:50:30;;;;;;;5.00;2.10;;;8.30;99.90;;;;;;5005418;28;20493;-27
2023/11/25 09:53:03;;;;;;;3.63;2.20;;;8.20;99.90;;;;;;5004574;28;20454;-25
2023/11/25 09:55:34;;;;;;;3.57;2.43;;;8.20;99.90;;;;;;5008700;28;21027;-26
2023/11/25 09:58:07;;;;;;;3.03;2.13;;;8.20;99.90;;;;;;5016600;28;20471;-27
2023/11/25 10:00:37;;;;;;;6.00;1.90;;;8.20;99.90;;;;;;5007141;28;20445;-25
2023/11/25 10:03:07;;;;;;;3.95;2.72;;;8.20;99.90;;;;;;5002163;28;20456;-26
2023/11/25 10:05:36;;;;;;;4.00;1.80;;;8.20;99.90;;;;;;4974532;28;20221;-25
2023/11/25 10:08:04;;;;;;;5.87;2.17;;;8.40;99.90;;;;;;4990578;28;20186;-25
2023/11/25 10:10:35;;;;;;;3.78;1.85;;;8.30;99.90;;;;;;4979377;28;20431;-26
2023/11/25 10:13:05;;;;;;;3.10;2.20;;;8.30;99.90;;;;;;4977478;28;20555;-26
2023/11/25 10:15:33;;;;;;;6.60;2.40;;;8.30;99.90;;;;;;4990197;28;21025;-28
2023/11/25 10:17:59;;;;;;;4.30;3.03;;;8.30;99.90;;;;;;4980246;28;20887;-26
2023/11/25 10:20:25;;;;;;;4.07;2.10;;;8.30;99.90;;;;;;4978599;28;20451;-26
2023/11/25 10:22:53;;;;;;;4.30;1.95;;;8.30;99.90;;;;;;4993606;28;20460;-26
2023/11/25 10:25:24;;;;;;;2.23;1.83;;;8.30;99.90;;;;;;4961143;28;20221;-27
2023/11/25 10:27:54;;;;;;;5.83;2.00;;;8.30;99.90;;;;;;4976420;28;20448;-24
2023/11/25 10:30:21;;;;;;;2.75;2.25;;;8.30;99.90;;;;;;4991835;28;20524;-26
2023/11/25 10:32:54;;;;;;;5.57;1.83;;;8.30;99.90;;;;;;4976148;28;20221;-26
2023/11/25 10:35:25;;;;;;;4.30;2.00;;;8.30;99.90;;;;;;4993665;28;20530;-25
2023/11/25 10:37:52;;;;;;;4.73;2.13;;;8.30;99.90;;;;;;4990055;28;20552;-25
2023/11/25 10:40:19;;;;;;;3.73;2.07;;;8.30;99.90;;;;;;4987597;28;20449;-25
2023/11/25 10:42:48;;;;;;;6.00;2.07;;;8.30;99.90;;;;;;4985643;28;20563;-28
2023/11/25 10:45:24;;;;;;;6.70;1.90;;;8.40;99.90;;;;;;5008443;28;20549;-27
2023/11/25 10:47:50;;;;;;;3.10;1.87;;;8.30;99.90;;;;;;5007829;28;20427;-25
2023/11/25 10:50:16;;;;;;;4.90;1.90;;;8.30;99.90;;;;;;4994750;28;20502;-25
2023/11/25 10:52:44;;;;;;;7.77;2.07;;;8.30;99.90;;;;;;4994114;28;20997;-26
2023/11/25 10:55:10;;;;;;;2.53;1.63;;;8.30;99.90;;;;;;4993887;28;20531;-26
2023/11/25 10:57:37;;;;;;;3.17;2.13;;;8.30;99.90;;;;;;4995627;28;20480;-24
2023/11/25 11:00:13;;;;;;;3.53;1.80;;;8.30;99.90;;;;;;4977624;28;20479;-25
2023/11/25 11:02:47;;;;;;;2.67;1.67;;;8.30;99.90;;;;;;4988120;28;21162;-26
2023/11/25 11:05:22;;;;;;;4.70;1.90;;;8.30;99.90;;;;;;4983620;28;20486;-26
2023/11/25 11:08:02;;;;;;;2.73;2.00;;;8.30;99.90;;;;;;4995357;28;20481;-25
2023/11/25 11:10:45;;;;;;;2.93;1.53;;;8.30;99.90;;;;;;4985264;28;20453;-27
2023/11/25 11:13:36;;;;;;;5.47;2.03;;;8.30;99.90;;;;;;4980344;28;20460;-26
2023/11/25 11:16:15;;;;;;;5.17;1.93;;;8.30;99.90;;;;;;4995391;28;20453;-25
2023/11/25 11:18:43;;;;;;;4.30;1.80;;;8.30;99.90;;;;;;4991925;28;20473;-25
2023/11/25 11:21:09;;;;;;;3.57;1.93;;;8.30;99.90;;;;;;4992055;28;20803;-25
2023/11/25 11:23:37;;;;;;;3.33;1.87;;;8.30;99.90;;;;;;5003309;28;20451;-25
2023/11/25 11:26:33;;;;;;;2.83;1.60;;;8.30;99.90;;;;;;4991805;28;20490;-25
2023/11/25 11:29:14;;;;;;;4.53;1.90;;;8.40;99.90;;;;;;4974716;28;20894;-26
2023/11/25 11:31:59;;;;;;;2.70;2.23;;;8.30;99.90;;;;;;4990847;28;20440;-27
2023/11/25 11:34:27;;;;;;;4.50;1.87;;;8.30;99.90;;;;;;5000974;28;20424;-25
2023/11/25 11:36:55;;;;;;;4.73;2.40;;;8.30;99.90;;;;;;4993134;28;20426;-26
2023/11/25 11:39:39;;;;;;;4.47;2.73;;;8.30;99.90;;;;;;4997140;28;20428;-27
2023/11/25 11:42:22;;;;;;;2.50;2.17;;;8.40;99.90;;;;;;4984167;28;20452;-25
2023/11/25 11:45:22;;;;;;;3.00;2.40;;;8.40;99.90;;;;;;4994036;28;20471;-25
2023/11/25 11:47:57;;;;;;;3.90;1.90;;;8.40;99.90;;;;;;4980706;28;20440;-25
2023/11/25 11:50:27;;;;;;;2.73;2.37;;;8.40;99.90;;;;;;4985730;28;20209;-26
2023/11/25 11:53:02;;;;;;;4.20;1.70;;;8.40;99.90;;;;;;4994763;28;20445;-26
2023/11/25 11:55:35;;;;;;;4.03;1.70;;;8.50;99.90;;;;;;4997306;28;20585;-27
2023/11/25 11:58:05;;;;;;;2.20;2.00;;;8.40;99.90;;;;;;4983631;28;20531;-27
2023/11/25 12:00:41;;;;;;;2.37;1.73;;;8.40;99.90;;;;;;5001016;28;20428;-26
2023/11/25 12:03:10;;;;;;;4.10;1.40;;;8.40;99.90;;;;;;4996263;28;20466;-26
2023/11/25 12:05:37;;;;;;;7.70;2.00;;;8.40;99.90;;;;;;5007855;28;20482;-24
2023/11/25 12:08:08;;;;;;;5.00;1.80;;;8.40;99.90;;;;;;5021155;28;20419;-26
2023/11/25 12:10:35;;;;;;;3.53;1.90;;;8.40;99.90;;;;;;5021361;28;20455;-26
2023/11/25 12:13:01;;;;;;;4.10;1.77;;;8.40;99.90;;;;;;5022270;28;20442;-24
2023/11/25 12:15:32;;;;;;;2.90;1.47;;;8.40;99.90;;;;;;5001671;28;20468;-26
2023/11/25 12:18:00;;;;;;;3.37;2.13;;;8.40;99.90;;;;;;5020467;28;20442;-24
2023/11/25 12:20:27;;;;;;;7.57;2.13;;;8.40;99.90;;;;;;5000842;28;21005;-26
2023/11/25 12:22:54;;;;;;;5.37;1.93;;;8.40;99.90;;;;;;4997227;28;20497;-24
2023/11/25 12:25:23;;;;;;;5.90;2.30;;;8.40;99.90;;;;;;5017176;28;20474;-24
2023/11/25 12:27:49;;;;;;;3.13;1.90;;;8.40;99.90;;;;;;5022402;28;20845;-25
2023/11/25 12:30:16;;;;;;;6.30;1.88;;;8.40;99.90;;;;;;5014811;28;20435;-25
2023/11/25 12:32:43;;;;;;;3.57;1.90;;;8.40;99.90;;;;;;5023184;28;20223;-26
2023/11/25 12:35:13;;;;;;;7.37;2.23;;;8.50;99.90;;;;;;5013937;28;20447;-26
2023/11/25 12:37:42;;;;;;;4.82;2.00;;;8.50;99.90;;;;;;5016174;28;20431;-25
2023/11/25 12:40:39;;;;;;;1.87;1.60;;;8.50;99.90;;;;;;5019578;28;20699;-26
2023/11/25 12:43:06;;;;;;;4.27;1.97;;;8.60;99.90;;;;;;5003122;28;20471;-24
2023/11/25 12:45:43;;;;;;;4.90;2.30;;;8.50;99.90;;;;;;4996953;28;20467;-24
2023/11/25 12:48:12;;;;;;;3.30;2.20;;;8.50;99.90;;;;;;5012787;28;20445;-28
2023/11/25 12:50:57;;;;;;;3.77;1.93;;;8.50;99.90;;;;;;5003506;28;20427;-25
2023/11/25 12:53:24;;;;;;;9.23;2.00;;;8.50;99.90;;;;;;5001921;28;21528;-23
2023/11/25 12:55:57;;;;;;;4.57;2.33;;;8.50;99.90;;;;;;5012819;28;20850;-25
2023/11/25 12:58:24;;;;;;;8.40;2.27;;;8.50;99.90;;;;;;5011989;28;20440;-24
2023/11/25 13:00:56;;;;;;;3.93;2.00;;;8.50;99.90;;;;;;5009578;28;20437;-24
2023/11/25 13:03:31;;;;;;;7.00;1.97;;;8.50;99.90;;;;;;4991377;28;20555;-24
2023/11/25 13:06:04;;;;;;;5.95;2.63;;;8.50;99.90;;;;;;5015612;28;20514;-26
2023/11/25 13:08:33;;;;;;;2.50;1.90;;;8.50;99.90;;;;;;5012380;28;20926;-23